Time;durP1;ratioP1;P1;durP2;ratioP2;P2;SDS_P1;SDS_P2;PMS_P1;PMS_P2;Temp;Humidity;BMP_temperature;BMP_pressure;BME280_temperature;BME280_humidity;BME280_pressure;Samples;Min_cycle;Max_cycle;Signal;HPM_P1;HPM_P2
2021/01/22 06:45:32;;;;;;;;;;;;;;;19.70;48.84;96317.06;5077387;28;19963;-64
2021/01/22 06:48:02;;;;;;;;;;;;;;;22.19;45.11;96306.53;5062349;28;19925;-48
2021/01/22 06:50:28;;;;;;;;;;;;;;;20.53;47.91;96331.88;5063433;28;19980;-48
2021/01/22 06:53:08;;;;;;;;;;;;;;;20.14;49.55;96337.66;5061235;28;20352;-49
2021/01/22 06:55:53;;;;;;;;;;;;;;;19.98;50.01;96345.25;5065292;28;20290;-54
2021/01/22 06:58:26;;;;;;;;;;;;;;;19.96;50.92;96344.03;5065195;28;20382;-51
2021/01/22 07:00:54;;;;;;;;;;;;;;;19.94;50.43;96343.63;5060390;28;19936;-50
2021/01/22 07:03:35;;;;;;;;;;;;;;;20.00;50.94;96351.06;5061376;28;19924;-54
2021/01/22 07:06:00;;;;;;;;;;;;;;;19.95;51.41;96362.22;5060141;28;19917;-56
2021/01/22 07:08:44;;;;;;;;;;;;;;;19.94;51.46;96362.59;5066312;28;19928;-55
2021/01/22 07:11:10;;;;;;;;;;;;;;;19.94;51.26;96360.63;5064472;28;19920;-55
2021/01/22 07:13:36;;;;;;;;;;;;;;;19.98;50.98;96369.59;5064171;28;19920;-56
2021/01/22 07:16:06;;;;;;;;;;;;;;;20.05;51.38;96382.47;5055572;28;20067;-54
2021/01/22 07:18:41;;;;;;;;;;;;;;;20.11;51.24;96380.97;5063266;28;19994;-50
2021/01/22 07:21:41;;;;;;;;;;;;;;;20.18;52.04;96376.41;5063364;28;20285;-53
2021/01/22 07:24:12;;;;;;;;;;;;;;;20.23;51.33;96388.06;5058682;28;19928;-50
2021/01/22 07:26:41;;;;;;;;;;;;;;;20.23;51.19;96374.53;5061998;28;20326;-57
2021/01/22 07:29:17;;;;;;;;;;;;;;;20.27;51.54;96378.84;5064216;28;19975;-58
2021/01/22 07:31:50;;;;;;;;;;;;;;;20.33;51.84;96377.38;5065507;28;19921;-52
2021/01/22 07:34:34;;;;;;;;;;;;;;;20.55;51.16;96376.41;5061707;28;19925;-55
2021/01/22 07:36:59;;;;;;;;;;;;;;;20.54;51.62;96368.66;5066680;28;19921;-56
2021/01/22 07:39:27;;;;;;;;;;;;;;;20.54;51.26;96374.09;5061557;28;20381;-56
2021/01/22 07:42:02;;;;;;;;;;;;;;;20.71;51.38;96384.31;5063639;28;19928;-53
2021/01/22 07:44:27;;;;;;;;;;;;;;;20.69;50.82;96395.53;5056023;28;20338;-54
2021/01/22 07:46:52;;;;;;;;;;;;;;;20.82;52.69;96401.47;5053320;28;19967;-49
2021/01/22 07:49:17;;;;;;;;;;;;;;;20.89;53.99;96401.53;5064345;28;19929;-48
2021/01/22 07:51:43;;;;;;;;;;;;;;;20.64;50.15;96409.41;5062073;28;19924;-48
2021/01/22 07:54:09;;;;;;;;;;;;;;;20.54;49.98;96398.47;5057491;28;19921;-49
2021/01/22 07:56:34;;;;;;;;;;;;;;;20.46;50.05;96403.06;5051489;28;20066;-49
2021/01/22 07:58:59;;;;;;;;;;;;;;;20.59;50.10;96400.88;5052079;28;19962;-49
2021/01/22 08:01:27;;;;;;;;;;;;;;;20.72;50.11;96404.88;5050023;28;19925;-49
2021/01/22 08:03:53;;;;;;;;;;;;;;;20.69;49.72;96400.97;5047942;28;19955;-50
2021/01/22 08:06:18;;;;;;;;;;;;;;;20.75;49.88;96404.88;5051613;28;20329;-50
2021/01/22 08:08:43;;;;;;;;;;;;;;;20.86;50.38;96408.47;5047776;28;20216;-48
2021/01/22 08:11:21;;;;;;;;;;;;;;;20.93;50.71;96405.03;5046046;28;19917;-49
2021/01/22 08:13:46;;;;;;;;;;;;;;;20.97;50.75;96418.66;5052819;28;19917;-48
2021/01/22 08:16:12;;;;;;;;;;;;;;;20.99;50.33;96419.06;5047749;28;19921;-47
2021/01/22 08:18:43;;;;;;;;;;;;;;;21.05;49.94;96431.16;5045861;28;19960;-48
2021/01/22 08:21:12;;;;;;;;;;;;;;;21.04;50.00;96432.28;5048344;28;19912;-48
2021/01/22 08:23:42;;;;;;;;;;;;;;;21.06;49.67;96446.25;5048128;28;19933;-47
2021/01/22 08:26:07;;;;;;;;;;;;;;;21.14;50.00;96456.03;5049101;28;19935;-48
2021/01/22 08:28:33;;;;;;;;;;;;;;;21.13;49.92;96468.03;5051600;28;19920;-52
2021/01/22 08:30:58;;;;;;;;;;;;;;;21.09;49.91;96472.63;5050416;28;20370;-49
2021/01/22 08:33:24;;;;;;;;;;;;;;;21.14;49.92;96475.81;5048218;28;20119;-53
2021/01/22 08:35:49;;;;;;;;;;;;;;;21.19;49.93;96464.59;5039976;28;19923;-55
2021/01/22 08:38:15;;;;;;;;;;;;;;;21.31;49.86;96474.38;5044719;28;19920;-51
2021/01/22 08:40:41;;;;;;;;;;;;;;;21.38;49.65;96482.59;5040770;28;19920;-55
2021/01/22 08:43:12;;;;;;;;;;;;;;;21.43;49.62;96476.78;5038790;28;19917;-56
2021/01/22 08:45:38;;;;;;;;;;;;;;;21.45;49.44;96474.47;5047363;28;19932;-50
2021/01/22 08:48:03;;;;;;;;;;;;;;;21.43;49.50;96472.16;5042175;28;19921;-50
2021/01/22 08:50:29;;;;;;;;;;;;;;;21.45;49.26;96479.91;5043369;28;19963;-51
2021/01/22 08:53:10;;;;;;;;;;;;;;;21.31;49.51;96472.47;5042931;28;19925;-50
2021/01/22 08:55:39;;;;;;;;;;;;;;;21.26;49.89;96477.44;5034128;28;19939;-51
2021/01/22 08:58:05;;;;;;;;;;;;;;;21.47;49.53;96474.91;5045775;28;19929;-51
2021/01/22 09:00:31;;;;;;;;;;;;;;;21.46;49.51;96478.78;5046708;28;20402;-51
2021/01/22 09:02:56;;;;;;;;;;;;;;;21.30;49.72;96479.03;5050957;28;19927;-56
2021/01/22 09:05:22;;;;;;;;;;;;;;;21.27;49.77;96487.16;5050742;28;20306;-54
2021/01/22 09:08:03;;;;;;;;;;;;;;;21.10;49.41;96480.41;5049161;28;19921;-49
2021/01/22 09:10:29;;;;;;;;;;;;;;;21.20;49.44;96478.94;5049522;28;19916;-53
2021/01/22 09:12:55;;;;;;;;;;;;;;;21.35;49.39;96475.97;5049925;28;20007;-53
2021/01/22 09:15:20;;;;;;;;;;;;;;;21.41;49.13;96476.41;5049738;28;20405;-53
2021/01/22 09:17:49;;;;;;;;;;;;;;;21.48;49.01;96482.66;5046033;28;19952;-54
2021/01/22 09:20:19;;;;;;;;;;;;;;;21.53;49.04;96479.63;5050839;28;19927;-50
2021/01/22 09:22:45;;;;;;;;;;;;;;;21.52;48.92;96496.25;5050597;28;19921;-50
2021/01/22 09:25:15;;;;;;;;;;;;;;;21.49;49.01;96505.19;5050683;28;19971;-49
2021/01/22 09:27:40;;;;;;;;;;;;;;;21.43;49.36;96503.94;5050071;28;19942;-49
2021/01/22 09:30:07;;;;;;;;;;;;;;;21.53;48.91;96509.47;5044846;28;19921;-52
2021/01/22 09:32:32;;;;;;;;;;;;;;;21.41;49.23;96519.81;5045624;28;20319;-52
2021/01/22 09:34:57;;;;;;;;;;;;;;;21.60;48.98;96516.91;5047200;28;19924;-54
2021/01/22 09:37:23;;;;;;;;;;;;;;;21.63;48.86;96527.78;5043618;28;19929;-54
2021/01/22 09:39:48;;;;;;;;;;;;;;;21.67;48.71;96524.31;5042839;28;19921;-54
2021/01/22 09:42:13;;;;;;;;;;;;;;;-141.54;100.00;66188.06;5042655;28;19924;-50
2021/01/22 09:44:39;;;;;;;;;;;;;;;-141.54;100.00;66188.06;5041851;28;19921;-48
2021/01/22 09:47:04;;;;;;;;;;;;;;;-141.54;100.00;66188.06;5044832;28;19947;-53
2021/01/22 09:49:29;;;;;;;;;;;;;;;-141.54;100.00;66188.06;5039588;28;19999;-48
2021/01/22 09:51:55;;;;;;;;;;;;;;;-141.54;100.00;66188.06;5043654;28;20297;-54
2021/01/22 09:54:20;;;;;;;;;;;;;;;-141.54;100.00;66188.06;5044506;28;20401;-50
2021/01/22 09:56:45;;;;;;;;;;;;;;;-141.54;100.00;66188.06;5040193;28;20016;-56
2021/01/22 09:59:10;;;;;;;;;;;;;;;-141.54;100.00;66188.06;5042217;28;19928;-53
2021/01/22 10:01:36;;;;;;;;;;;;;;;-141.54;100.00;66188.06;5032802;28;20387;-55
2021/01/22 10:04:02;;;;;;;;;;;;;;;-141.54;100.00;66188.06;5040555;28;20297;-53
2021/01/22 10:06:28;;;;;;;;;;;;;;;-141.54;100.00;66188.06;5042363;28;19917;-52
2021/01/22 10:08:53;;;;;;;;;;;;;;;-141.54;100.00;66188.06;5038490;28;19960;-54
2021/01/22 10:11:18;;;;;;;;;;;;;;;-141.54;100.00;66188.06;5043007;28;19929;-51
2021/01/22 10:13:44;;;;;;;;;;;;;;;-141.54;100.00;66188.06;5040964;28;19929;-51
2021/01/22 10:16:09;;;;;;;;;;;;;;;-141.54;100.00;66188.06;5042550;28;19916;-55
2021/01/22 10:18:34;;;;;;;;;;;;;;;-141.54;100.00;66188.06;5047254;28;20012;-54
2021/01/22 10:20:59;;;;;;;;;;;;;;;-141.54;100.00;66188.06;5041235;28;20000;-51
2021/01/22 10:23:25;;;;;;;;;;;;;;;-141.54;100.00;66188.06;5039237;28;19921;-50
2021/01/22 10:25:50;;;;;;;;;;;;;;;-141.54;100.00;66188.06;5039535;28;19928;-54
2021/01/22 10:28:15;;;;;;;;;;;;;;;-141.54;100.00;66188.06;5039991;28;19924;-50
2021/01/22 10:30:40;;;;;;;;;;;;;;;-141.54;100.00;66188.06;5046717;28;19921;-55
2021/01/22 10:33:06;;;;;;;;;;;;;;;-141.54;100.00;66188.06;5043590;28;19929;-56
2021/01/22 10:35:31;;;;;;;;;;;;;;;-141.54;100.00;66188.06;5039857;28;19970;-55
2021/01/22 10:37:57;;;;;;;;;;;;;;;-141.54;100.00;66188.06;5032068;28;19952;-57
2021/01/22 10:40:22;;;;;;;;;;;;;;;-141.54;100.00;66188.06;5034109;28;19921;-55
2021/01/22 10:42:47;;;;;;;;;;;;;;;-141.54;100.00;66188.06;5040107;28;19921;-59
2021/01/22 10:45:12;;;;;;;;;;;;;;;-141.54;100.00;66188.06;5040905;28;20366;-57
2021/01/22 10:47:38;;;;;;;;;;;;;;;-141.54;100.00;66188.06;5040117;28;20358;-57
2021/01/22 10:50:04;;;;;;;;;;;;;;;-141.54;100.00;66188.06;5039495;28;19925;-57
2021/01/22 10:52:30;;;;;;;;;;;;;;;-141.54;100.00;66188.06;5035805;28;19920;-58
2021/01/22 10:54:55;;;;;;;;;;;;;;;-141.54;100.00;66188.06;5032729;28;20424;-58
2021/01/22 10:57:20;;;;;;;;;;;;;;;-141.54;100.00;66188.06;5039467;28;19960;-58
2021/01/22 10:59:45;;;;;;;;;;;;;;;-141.54;100.00;66188.06;5040882;28;19943;-58
2021/01/22 11:02:11;;;;;;;;;;;;;;;-141.54;100.00;66188.06;5042472;28;19927;-58
2021/01/22 11:04:38;;;;;;;;;;;;;;;-141.54;100.00;66188.06;5035977;28;20276;-59
2021/01/22 11:07:04;;;;;;;;;;;;;;;-141.54;100.00;66188.06;5039404;28;19963;-57
2021/01/22 11:09:30;;;;;;;;;;;;;;;-141.54;100.00;66188.06;5038726;28;19925;-57
2021/01/22 11:11:55;;;;;;;;;;;;;;;-141.54;100.00;66188.06;5047021;28;19935;-55
2021/01/22 11:14:20;;;;;;;;;;;;;;;-141.54;100.00;66188.06;5048337;28;20370;-58
2021/01/22 11:16:45;;;;;;;;;;;;;;;-141.54;100.00;66188.06;5046578;28;19929;-57
2021/01/22 11:19:11;;;;;;;;;;;;;;;-141.54;100.00;66188.06;5043774;28;19971;-57
2021/01/22 11:21:36;;;;;;;;;;;;;;;-141.54;100.00;66188.06;5044910;28;19928;-57
2021/01/22 11:24:03;;;;;;;;;;;;;;;-141.54;100.00;66188.06;5051109;28;19925;-56
2021/01/22 11:26:28;;;;;;;;;;;;;;;-141.54;100.00;66188.06;5042897;28;19964;-56
2021/01/22 11:28:53;;;;;;;;;;;;;;;-141.54;100.00;66188.06;5042561;28;20374;-57
2021/01/22 11:31:18;;;;;;;;;;;;;;;-141.54;100.00;66188.06;5042948;28;20062;-58
2021/01/22 11:33:45;;;;;;;;;;;;;;;-141.54;100.00;66188.06;5048669;28;19932;-57
2021/01/22 11:36:10;;;;;;;;;;;;;;;-141.54;100.00;66188.06;5048271;28;20431;-57
2021/01/22 11:38:35;;;;;;;;;;;;;;;-141.54;100.00;66188.06;5049551;28;19921;-59
2021/01/22 11:41:01;;;;;;;;;;;;;;;-141.54;100.00;66188.06;5037287;28;20020;-57
2021/01/22 11:43:26;;;;;;;;;;;;;;;-141.54;100.00;66188.06;5038401;28;19925;-56
2021/01/22 11:45:51;;;;;;;;;;;;;;;-141.54;100.00;66188.06;5047031;28;19964;-54
2021/01/22 11:48:16;;;;;;;;;;;;;;;-141.54;100.00;66188.06;5036490;28;20035;-57
2021/01/22 11:50:42;;;;;;;;;;;;;;;-141.54;100.00;66188.06;5045312;28;20015;-57
2021/01/22 14:15:59;;;;;;;;;;;;;;;20.17;51.34;96715.38;5124968;27;20529;-51
2021/01/22 14:18:25;;;;;;;;;;;;;;;20.25;51.49;96706.25;5098765;27;20027;-55
2021/01/22 14:20:50;;;;;;;;;;;;;;;20.35;51.15;96711.06;5061068;28;19979;-51
2021/01/22 14:23:15;;;;;;;;;;;;;;;20.47;51.70;96716.28;5056030;28;19967;-57
2021/01/22 14:25:41;;;;;;;;;;;;;;;20.56;51.33;96716.81;5073502;28;20371;-55
2021/01/22 14:28:06;;;;;;;;;;;;;;;20.62;51.32;96720.75;5072383;28;20001;-54
2021/01/22 14:30:32;;;;;;;;;;;;;;;20.72;52.09;96720.16;5056525;28;19934;-64
2021/01/22 14:32:57;;;;;;;;;;;;;;;20.75;51.78;96715.94;5071697;28;19969;-61
2021/01/22 14:35:22;;;;;;;;;;;;;;;20.75;51.46;96713.97;5071176;28;19928;-59
2021/01/22 14:37:48;;;;;;;;;;;;;;;20.85;51.71;96716.06;5082592;28;19924;-69
2021/01/22 14:40:16;;;;;;;;;;;;;;;21.16;51.67;96716.91;5072289;28;20328;-60
2021/01/22 14:42:41;;;;;;;;;;;;;;;21.23;50.52;96728.59;5047497;28;19934;-58
2021/01/22 14:45:07;;;;;;;;;;;;;;;21.22;51.00;96737.13;5072164;28;19924;-59
2021/01/22 14:47:33;;;;;;;;;;;;;;;21.23;51.11;96739.44;5053172;28;19934;-59
2021/01/22 14:50:02;;;;;;;;;;;;;;;21.17;51.31;96726.56;5071698;28;19924;-58
2021/01/22 14:52:27;;;;;;;;;;;;;;;21.26;50.73;96737.94;5088426;28;19921;-59
2021/01/22 14:54:53;;;;;;;;;;;;;;;21.29;50.44;96732.56;5074455;28;19939;-52
2021/01/22 14:57:18;;;;;;;;;;;;;;;20.96;50.93;96734.41;5058033;28;20376;-55
2021/01/22 14:59:43;;;;;;;;;;;;;;;20.73;50.50;96731.75;5070382;28;19924;-58
2021/01/22 15:02:09;;;;;;;;;;;;;;;20.14;48.56;96733.13;5053871;28;19973;-57
2021/01/22 15:04:34;;;;;;;;;;;;;;;19.65;47.37;96736.88;5052009;28;20292;-57
2021/01/22 15:06:59;;;;;;;;;;;;;;;19.44;46.88;96726.41;5070550;28;19980;-57
2021/01/22 15:09:25;;;;;;;;;;;;;;;19.92;49.31;96719.59;5090164;28;19924;-57
2021/01/22 15:11:50;;;;;;;;;;;;;;;20.17;48.78;96728.94;5055977;28;20568;-58
2021/01/22 15:14:19;;;;;;;;;;;;;;;20.25;48.56;96733.34;5056645;28;19932;-57
2021/01/22 15:16:45;;;;;;;;;;;;;;;20.27;48.53;96728.34;5073557;28;20028;-57
2021/01/22 15:19:10;;;;;;;;;;;;;;;20.30;48.60;96741.16;5057447;28;19924;-54
2021/01/22 15:21:36;;;;;;;;;;;;;;;20.27;48.97;96739.16;5054311;28;19924;-56
2021/01/22 15:24:01;;;;;;;;;;;;;;;20.29;49.41;96736.88;5057615;28;21325;-56
2021/01/22 15:26:27;;;;;;;;;;;;;;;20.28;49.37;96742.66;5051840;28;19928;-56
2021/01/22 15:28:52;;;;;;;;;;;;;;;20.29;49.44;96750.44;5058816;28;19946;-54
2021/01/22 15:31:17;;;;;;;;;;;;;;;20.27;49.58;96741.88;5046418;28;19935;-56
2021/01/22 15:33:43;;;;;;;;;;;;;;;20.04;49.28;96749.22;5058535;28;20374;-57
2021/01/22 15:36:08;;;;;;;;;;;;;;;20.09;49.85;96752.38;5058555;28;19956;-55
2021/01/22 15:38:33;;;;;;;;;;;;;;;20.03;49.02;96764.66;5054895;28;19983;-55
2021/01/22 15:40:59;;;;;;;;;;;;;;;20.11;49.78;96771.78;5055740;28;19931;-54
2021/01/22 15:43:24;;;;;;;;;;;;;;;20.16;49.41;96767.97;5054730;28;20529;-56
2021/01/22 15:45:49;;;;;;;;;;;;;;;20.18;49.38;96768.44;5042010;28;19936;-57
2021/01/22 15:48:14;;;;;;;;;;;;;;;20.19;49.62;96765.34;5052884;28;20001;-55
2021/01/22 15:50:40;;;;;;;;;;;;;;;20.23;49.86;96767.34;5044523;28;19931;-59
2021/01/22 15:53:05;;;;;;;;;;;;;;;20.22;49.89;96766.59;5054101;28;19963;-57
2021/01/22 15:55:32;;;;;;;;;;;;;;;20.21;50.04;96764.22;5038575;28;19943;-58
2021/01/22 15:57:57;;;;;;;;;;;;;;;20.19;50.09;96778.09;5065761;28;19916;-56
